Time;durP1;ratioP1;P1;durP2;ratioP2;P2;SDS_P1;SDS_P2;PMS_P1;PMS_P2;Temp;Humidity;BMP_temperature;BMP_pressure;BME280_temperature;BME280_humidity;BME280_pressure;Samples;Min_cycle;Max_cycle;Signal;HPM_P1;HPM_P2
2023/05/26 00:01:52;;;;;;;28.77;3.38;;;10.40;99.90;;;;;;5014089;28;20479;-71
2023/05/26 00:04:18;;;;;;;19.75;3.65;;;10.40;99.90;;;;;;5014065;28;20391;-71
2023/05/26 00:06:46;;;;;;;16.10;2.63;;;10.40;99.90;;;;;;5029400;28;20041;-70
2023/05/26 00:09:12;;;;;;;18.25;2.70;;;10.30;99.90;;;;;;5014307;28;20030;-71
2023/05/26 00:11:37;;;;;;;21.02;3.30;;;10.30;99.90;;;;;;5013934;28;20053;-71
2023/05/26 00:14:03;;;;;;;19.92;3.03;;;10.30;99.90;;;;;;5013818;28;20420;-72
2023/05/26 00:16:29;;;;;;;16.67;2.85;;;10.30;99.90;;;;;;5013842;28;20169;-70
2023/05/26 00:18:54;;;;;;;32.13;2.15;;;10.30;99.90;;;;;;5013786;28;20494;-71
2023/05/26 00:21:20;;;;;;;19.90;2.90;;;10.30;99.90;;;;;;5013778;28;20033;-70
2023/05/26 00:23:45;;;;;;;23.05;2.85;;;10.30;99.90;;;;;;5028777;28;20052;-71
2023/05/26 00:26:11;;;;;;;18.55;2.80;;;10.20;99.90;;;;;;5013673;28;20033;-72
2023/05/26 00:28:38;;;;;;;26.90;3.00;;;10.20;99.90;;;;;;5013500;28;20033;-71
2023/05/26 00:31:03;;;;;;;30.55;4.63;;;10.20;99.90;;;;;;5013434;28;20084;-71
2023/05/26 00:33:29;;;;;;;16.52;2.33;;;10.20;99.90;;;;;;5013492;28;20506;-72
2023/05/26 00:35:55;;;;;;;12.43;2.25;;;10.20;99.90;;;;;;5013522;28;20117;-71
2023/05/26 00:38:20;;;;;;;25.73;3.17;;;10.10;99.90;;;;;;5013387;28;20121;-72
2023/05/26 00:40:46;;;;;;;21.98;3.38;;;10.10;99.90;;;;;;5013457;28;20533;-70
2023/05/26 00:43:11;;;;;;;9.02;2.65;;;10.10;99.90;;;;;;5012973;28;20026;-71
2023/05/26 00:45:37;;;;;;;21.48;3.50;;;10.10;99.90;;;;;;5013423;28;20116;-71
2023/05/26 00:48:04;;;;;;;11.90;2.38;;;10.10;99.90;;;;;;5013360;28;20499;-71
2023/05/26 00:50:30;;;;;;;17.30;2.23;;;10.00;99.90;;;;;;5013423;28;20113;-72
2023/05/26 00:52:56;;;;;;;22.00;3.60;;;10.00;99.90;;;;;;5013266;28;20356;-71
2023/05/26 00:55:23;;;;;;;21.45;2.83;;;10.00;99.90;;;;;;5013160;28;20048;-71
2023/05/26 00:57:50;;;;;;;21.73;3.92;;;10.00;99.90;;;;;;5013299;28;20483;-71
2023/05/26 01:00:16;;;;;;;19.05;2.60;;;10.00;99.90;;;;;;5013200;28;20502;-71
2023/05/26 01:02:44;;;;;;;14.27;2.50;;;10.00;99.90;;;;;;5013003;28;20487;-71
2023/05/26 01:05:15;;;;;;;26.55;4.03;;;10.00;99.90;;;;;;5012372;28;20033;-72
2023/05/26 01:07:42;;;;;;;16.90;2.60;;;9.90;99.90;;;;;;5012979;28;20030;-71
2023/05/26 01:10:09;;;;;;;13.75;2.63;;;9.90;99.90;;;;;;5013025;28;20034;-71
2023/05/26 01:13:03;;;;;;;21.48;2.60;;;9.90;99.90;;;;;;5013122;28;20041;-72
2023/05/26 01:15:49;;;;;;;24.33;3.22;;;9.90;99.90;;;;;;5009029;28;20042;-72
2023/05/26 01:18:24;;;;;;;31.08;3.92;;;9.90;99.90;;;;;;5013037;28;20044;-72
2023/05/26 01:20:50;;;;;;;17.48;3.22;;;9.80;99.90;;;;;;5013058;28;20022;-72
2023/05/26 01:23:52;;;;;;;14.82;3.38;;;9.80;99.90;;;;;;5013048;28;20101;-71
2023/05/26 01:26:43;;;;;;;19.33;2.58;;;9.80;99.90;;;;;;5012891;28;20062;-71
2023/05/26 01:29:14;;;;;;;17.88;3.65;;;9.70;99.90;;;;;;5012586;28;20054;-70
2023/05/26 01:31:40;;;;;;;15.95;2.95;;;9.70;99.90;;;;;;5012869;28;20475;-72
2023/05/26 01:34:06;;;;;;;14.65;2.63;;;9.70;99.90;;;;;;5027918;28;20129;-71
2023/05/26 01:36:32;;;;;;;19.13;3.22;;;9.70;99.90;;;;;;5012769;28;20045;-71
2023/05/26 01:38:58;;;;;;;14.48;3.17;;;9.70;99.90;;;;;;5012869;28;20534;-71
2023/05/26 01:41:42;;;;;;;17.90;3.00;;;9.70;99.90;;;;;;5012846;28;20056;-71
2023/05/26 01:44:35;;;;;;;22.17;3.05;;;9.70;99.90;;;;;;5012791;28;20033;-70
2023/05/26 01:47:03;;;;;;;15.43;2.90;;;9.70;99.90;;;;;;5012796;28;20494;-71
2023/05/26 01:49:30;;;;;;;20.48;2.95;;;9.70;99.90;;;;;;5012725;28;20034;-71
2023/05/26 01:52:02;;;;;;;12.27;2.22;;;9.70;99.90;;;;;;5012750;28;20593;-70
2023/05/26 01:54:34;;;;;;;17.33;2.30;;;9.60;99.90;;;;;;5012718;28;20096;-71
2023/05/26 01:57:01;;;;;;;23.17;2.92;;;9.60;99.90;;;;;;5016213;28;20034;-72
2023/05/26 01:59:28;;;;;;;17.27;3.55;;;9.60;99.90;;;;;;5016337;28;20034;-71
2023/05/26 02:01:54;;;;;;;23.90;3.92;;;9.60;99.90;;;;;;5016341;28;20018;-71
2023/05/26 02:04:19;;;;;;;10.02;3.00;;;9.60;99.90;;;;;;5016560;28;20026;-71
2023/05/26 02:06:46;;;;;;;19.17;3.28;;;9.50;99.90;;;;;;5015998;28;20088;-70
2023/05/26 02:09:12;;;;;;;16.77;2.85;;;9.50;99.90;;;;;;5016137;28;20041;-71
2023/05/26 02:11:37;;;;;;;16.48;4.05;;;9.60;99.90;;;;;;5016042;28;20060;-72
2023/05/26 02:14:03;;;;;;;30.65;4.80;;;9.60;99.90;;;;;;5016048;28;20503;-70
2023/05/26 02:16:29;;;;;;;24.55;3.17;;;9.60;99.90;;;;;;5016087;28;20059;-71
2023/05/26 02:18:55;;;;;;;18.30;3.70;;;9.50;99.90;;;;;;5015983;28;20466;-71
2023/05/26 02:21:20;;;;;;;10.57;1.98;;;9.50;99.90;;;;;;5016159;28;20033;-71
2023/05/26 02:23:46;;;;;;;24.67;3.10;;;9.50;99.90;;;;;;5015923;28;20025;-71
2023/05/26 02:26:11;;;;;;;10.00;1.75;;;9.50;99.90;;;;;;5014685;28;20022;-71
2023/05/26 02:28:38;;;;;;;20.60;2.95;;;9.50;99.90;;;;;;5015811;28;20025;-71
2023/05/26 02:31:04;;;;;;;15.98;2.83;;;9.50;99.90;;;;;;5015679;28;20096;-72
2023/05/26 02:33:30;;;;;;;16.17;2.55;;;9.50;99.90;;;;;;5015830;28;20026;-70
2023/05/26 02:35:56;;;;;;;27.30;2.88;;;9.50;99.90;;;;;;5015540;28;20045;-69
2023/05/26 02:38:22;;;;;;;16.00;3.55;;;9.50;99.90;;;;;;5015643;28;20034;-71
2023/05/26 02:40:51;;;;;;;12.73;2.75;;;9.50;99.90;;;;;;5015544;28;20494;-70
2023/05/26 02:43:17;;;;;;;12.20;2.92;;;9.40;99.90;;;;;;5015546;28;20099;-70
2023/05/26 02:45:43;;;;;;;12.70;2.22;;;9.40;99.90;;;;;;5015409;28;20041;-71
2023/05/26 02:48:09;;;;;;;17.70;3.47;;;9.40;99.90;;;;;;5015408;28;20413;-71
2023/05/26 02:50:34;;;;;;;11.23;2.88;;;9.40;99.90;;;;;;5015483;28;20053;-72
2023/05/26 02:53:00;;;;;;;22.48;3.72;;;9.40;99.90;;;;;;5015348;28;20037;-70
2023/05/26 02:55:26;;;;;;;14.20;3.38;;;9.30;99.90;;;;;;5015288;28;20037;-71
2023/05/26 02:57:51;;;;;;;18.95;2.53;;;9.30;99.90;;;;;;5015584;28;20029;-71
2023/05/26 03:00:18;;;;;;;13.70;2.70;;;9.30;99.90;;;;;;5015213;28;20037;-71
2023/05/26 03:02:44;;;;;;;12.07;2.72;;;9.30;99.90;;;;;;5015212;28;20022;-70
2023/05/26 03:05:10;;;;;;;15.10;3.00;;;9.30;99.90;;;;;;5015137;28;20037;-72
2023/05/26 03:07:35;;;;;;;22.25;3.10;;;9.30;99.90;;;;;;5014643;28;20192;-70
2023/05/26 03:10:01;;;;;;;16.80;2.92;;;9.30;99.90;;;;;;5015103;28;20044;-71
2023/05/26 03:12:27;;;;;;;17.60;3.35;;;9.30;99.90;;;;;;5030205;28;20026;-72
2023/05/26 03:14:54;;;;;;;25.08;2.75;;;9.30;99.90;;;;;;5014914;28;20478;-72
2023/05/26 03:17:19;;;;;;;29.80;2.97;;;9.30;99.90;;;;;;5014939;28;20109;-71
2023/05/26 03:19:45;;;;;;;14.63;2.97;;;9.30;99.90;;;;;;5014841;28;20061;-71
2023/05/26 03:22:11;;;;;;;19.90;3.30;;;9.30;99.90;;;;;;5014820;28;20030;-71
2023/05/26 03:24:37;;;;;;;17.13;3.90;;;9.30;99.90;;;;;;5014743;28;20474;-72
2023/05/26 03:27:03;;;;;;;23.27;3.20;;;9.30;99.90;;;;;;5014716;28;20076;-71
2023/05/26 03:29:30;;;;;;;21.17;2.75;;;9.30;99.90;;;;;;5014400;28;20097;-70
2023/05/26 03:31:56;;;;;;;11.70;3.15;;;9.30;99.90;;;;;;5014612;28;20152;-71
2023/05/26 03:34:23;;;;;;;25.25;2.88;;;9.20;99.90;;;;;;5014539;28;20521;-71
2023/05/26 03:36:49;;;;;;;17.93;2.57;;;9.20;99.90;;;;;;5014454;28;20467;-71
2023/05/26 03:39:16;;;;;;;17.83;3.83;;;9.20;99.90;;;;;;5014505;28;20072;-71
2023/05/26 03:41:42;;;;;;;18.02;2.67;;;9.20;99.90;;;;;;5014411;28;20125;-70
2023/05/26 03:44:09;;;;;;;16.75;3.10;;;9.20;99.90;;;;;;5014423;28;20026;-71
2023/05/26 03:46:35;;;;;;;16.65;3.15;;;9.20;99.90;;;;;;5014312;28;20049;-70
2023/05/26 03:49:01;;;;;;;16.83;2.60;;;9.10;99.90;;;;;;5014236;28;20463;-70
2023/05/26 03:51:26;;;;;;;25.08;4.00;;;9.20;99.90;;;;;;5014274;28;20112;-71
2023/05/26 03:53:52;;;;;;;20.67;3.15;;;9.10;99.90;;;;;;5014138;28;20443;-70
2023/05/26 03:56:18;;;;;;;13.60;2.22;;;9.20;99.90;;;;;;5014181;28;20040;-71
2023/05/26 03:58:44;;;;;;;26.15;3.63;;;9.20;99.90;;;;;;5014403;28;20485;-71
2023/05/26 04:01:10;;;;;;;19.98;2.80;;;9.20;99.90;;;;;;5029248;28;20053;-71
2023/05/26 04:03:35;;;;;;;32.40;3.92;;;9.10;99.90;;;;;;5014030;28;20088;-71
2023/05/26 04:06:02;;;;;;;20.17;2.55;;;9.20;99.90;;;;;;5014010;28;20152;-71
2023/05/26 04:08:28;;;;;;;18.25;2.33;;;9.20;99.90;;;;;;5014040;28;20030;-71
2023/05/26 04:10:54;;;;;;;14.60;2.72;;;9.20;99.90;;;;;;5013872;28;20036;-70
2023/05/26 04:13:19;;;;;;;24.50;3.05;;;9.20;99.90;;;;;;5013868;28;20104;-72
2023/05/26 04:15:45;;;;;;;19.35;2.50;;;9.20;99.90;;;;;;5013744;28;20033;-72
2023/05/26 04:18:11;;;;;;;18.25;3.70;;;9.20;99.90;;;;;;5013314;28;20041;-72
2023/05/26 04:20:37;;;;;;;24.55;2.85;;;9.20;99.90;;;;;;5013810;28;20030;-71
2023/05/26 04:23:02;;;;;;;23.80;2.78;;;9.20;99.90;;;;;;5013793;28;20493;-72
2023/05/26 04:25:28;;;;;;;13.60;2.88;;;9.20;99.90;;;;;;5013764;28;20033;-71
2023/05/26 04:27:56;;;;;;;21.10;3.35;;;9.20;99.90;;;;;;5013684;28;20091;-72
2023/05/26 04:30:22;;;;;;;;;;;9.20;99.90;;;;;;5013996;28;20046;-72
2023/05/26 04:32:48;;;;;;;20.73;3.22;;;9.20;99.90;;;;;;5013620;28;19916;-70
2023/05/26 04:35:14;;;;;;;18.65;3.00;;;9.30;99.90;;;;;;5013525;28;20105;-71
2023/05/26 04:37:40;;;;;;;17.20;2.83;;;9.30;99.90;;;;;;5013598;28;20033;-71
2023/05/26 04:40:09;;;;;;;23.63;3.15;;;9.40;99.90;;;;;;5014156;28;20398;-72
2023/05/26 04:42:36;;;;;;;23.25;2.83;;;9.40;99.90;;;;;;5013856;28;20034;-72
2023/05/26 04:45:06;;;;;;;24.50;2.78;;;9.40;99.90;;;;;;5029160;28;20025;-74
2023/05/26 04:47:32;;;;;;;17.13;3.13;;;9.30;99.90;;;;;;5013554;28;20025;-71
2023/05/26 04:50:06;;;;;;;30.13;2.60;;;9.40;99.90;;;;;;5013674;28;20062;-71
2023/05/26 04:52:32;;;;;;;9.80;1.92;;;9.40;99.90;;;;;;5013964;28;20386;-70
2023/05/26 04:54:57;;;;;;;21.85;3.50;;;9.40;99.90;;;;;;5013678;28;20026;-71
2023/05/26 04:57:23;;;;;;;18.63;2.28;;;9.40;99.90;;;;;;5013463;28;20022;-71
2023/05/26 04:59:49;;;;;;;16.80;3.67;;;9.50;99.90;;;;;;5028697;28;20022;-71
2023/05/26 05:02:15;;;;;;;18.95;3.22;;;9.50;99.90;;;;;;5013623;28;20026;-71
2023/05/26 05:04:43;;;;;;;21.88;2.65;;;9.60;99.90;;;;;;5013492;28;20034;-71
2023/05/26 05:07:09;;;;;;;19.77;4.32;;;9.60;99.90;;;;;;5013393;28;20436;-71
2023/05/26 05:09:35;;;;;;;22.52;3.25;;;9.70;99.90;;;;;;5013568;28;20109;-71
2023/05/26 05:12:01;;;;;;;14.90;2.38;;;9.70;99.90;;;;;;5013198;28;20061;-71
2023/05/26 05:14:27;;;;;;;25.85;3.90;;;9.80;99.90;;;;;;5013064;28;20057;-72
2023/05/26 05:16:52;;;;;;;17.42;2.28;;;9.80;99.90;;;;;;5013364;28;20434;-72
2023/05/26 05:19:18;;;;;;;11.23;2.30;;;9.90;99.90;;;;;;5013078;28;20030;-72
2023/05/26 05:21:44;;;;;;;15.85;3.72;;;9.90;99.90;;;;;;5013020;28;20034;-69
2023/05/26 05:24:10;;;;;;;17.48;3.15;;;9.90;99.90;;;;;;5012880;28;20041;-69
2023/05/26 05:26:37;;;;;;;21.25;3.42;;;9.90;99.90;;;;;;5012832;28;20038;-69
2023/05/26 05:29:03;;;;;;;18.13;3.50;;;9.90;99.90;;;;;;5013239;28;20061;-69
2023/05/26 05:31:29;;;;;;;15.13;2.58;;;10.00;99.90;;;;;;5016885;28;20084;-69
2023/05/26 05:33:54;;;;;;;28.73;3.90;;;10.10;99.90;;;;;;5017021;28;20033;-69
2023/05/26 05:36:20;;;;;;;10.95;2.28;;;10.20;99.90;;;;;;5016702;28;20049;-69
2023/05/26 05:38:46;;;;;;;20.83;2.95;;;10.40;99.90;;;;;;5016564;28;20041;-69
2023/05/26 05:41:11;;;;;;;17.08;2.60;;;10.50;99.90;;;;;;5016613;28;20037;-70
2023/05/26 05:43:37;;;;;;;35.05;3.85;;;10.60;99.90;;;;;;5016662;28;20030;-70
2023/05/26 05:46:03;;;;;;;15.50;2.92;;;10.60;99.90;;;;;;5016597;28;20114;-70
2023/05/26 05:48:29;;;;;;;16.58;2.53;;;10.60;99.90;;;;;;5016510;28;20030;-70
2023/05/26 05:50:55;;;;;;;13.38;3.15;;;10.70;99.90;;;;;;5016454;28;20394;-70
2023/05/26 05:53:20;;;;;;;24.65;3.47;;;10.70;99.90;;;;;;5016498;28;20034;-69
2023/05/26 05:55:46;;;;;;;26.83;3.45;;;10.70;99.90;;;;;;5016319;28;20034;-70
2023/05/26 05:58:13;;;;;;;14.80;3.25;;;10.80;99.90;;;;;;5016595;28;20108;-70
2023/05/26 06:00:38;;;;;;;13.35;2.35;;;10.90;99.90;;;;;;5016461;28;20105;-70
2023/05/26 06:03:04;;;;;;;21.77;4.30;;;11.10;99.90;;;;;;5016213;28;20058;-70
2023/05/26 06:05:30;;;;;;;12.00;2.85;;;11.20;99.90;;;;;;5016241;28;20053;-69
2023/05/26 06:07:55;;;;;;;12.50;2.25;;;11.30;99.90;;;;;;5016225;28;20032;-69
2023/05/26 06:10:21;;;;;;;22.33;3.75;;;11.40;99.90;;;;;;5016657;28;20030;-71
2023/05/26 06:12:46;;;;;;;19.00;3.45;;;11.50;99.90;;;;;;5016067;28;20030;-70
2023/05/26 06:15:12;;;;;;;20.33;3.88;;;11.50;99.90;;;;;;5031038;28;20033;-70
2023/05/26 06:17:38;;;;;;;27.02;2.83;;;11.70;99.90;;;;;;5016039;28;20030;-70
2023/05/26 06:20:04;;;;;;;17.70;4.20;;;12.20;99.90;;;;;;5015891;28;20176;-70
2023/05/26 06:22:29;;;;;;;10.70;3.08;;;12.70;99.90;;;;;;5015900;28;20033;-70
2023/05/26 06:24:55;;;;;;;17.90;3.22;;;12.80;99.90;;;;;;5015850;28;20030;-71
2023/05/26 06:27:21;;;;;;;12.73;2.22;;;12.60;99.90;;;;;;5015835;28;20065;-70
2023/05/26 06:29:47;;;;;;;24.60;2.53;;;12.40;99.90;;;;;;5015639;28;20042;-70
2023/05/26 06:32:12;;;;;;;14.65;2.50;;;12.20;99.90;;;;;;5015821;28;20029;-69
2023/05/26 06:34:38;;;;;;;11.00;3.22;;;12.00;99.90;;;;;;5015675;28;20112;-70
2023/05/26 06:37:04;;;;;;;8.65;2.38;;;12.00;99.90;;;;;;5015765;28;20102;-70
2023/05/26 06:39:30;;;;;;;18.75;3.70;;;12.10;99.90;;;;;;5031171;28;20056;-69
2023/05/26 06:41:56;;;;;;;13.25;2.67;;;12.10;99.90;;;;;;5014679;28;20025;-69
2023/05/26 06:44:23;;;;;;;24.40;2.55;;;12.00;99.90;;;;;;5015633;28;20104;-70
2023/05/26 06:46:49;;;;;;;23.67;5.47;;;12.30;99.90;;;;;;5015486;28;20080;-71
2023/05/26 06:49:14;;;;;;;21.85;2.92;;;12.70;99.90;;;;;;5015360;28;20063;-69
2023/05/26 06:51:40;;;;;;;14.93;2.88;;;13.10;99.90;;;;;;5015275;28;20025;-70
2023/05/26 06:54:06;;;;;;;16.88;3.90;;;13.50;99.90;;;;;;5015074;28;20129;-69
2023/05/26 06:56:32;;;;;;;20.98;4.28;;;13.40;99.90;;;;;;5015311;28;20029;-70
2023/05/26 06:58:57;;;;;;;15.30;2.85;;;13.50;99.90;;;;;;5015169;28;20105;-69
2023/05/26 07:01:23;;;;;;;17.02;3.55;;;14.90;99.90;;;;;;5030414;28;20029;-69
2023/05/26 07:03:49;;;;;;;23.52;3.53;;;15.80;99.90;;;;;;5015133;28;20390;-70
2023/05/26 07:06:15;;;;;;;20.85;3.53;;;15.50;99.90;;;;;;5015371;28;20017;-69
2023/05/26 07:08:40;;;;;;;10.88;2.70;;;15.00;99.90;;;;;;5015046;28;20033;-69
2023/05/26 07:11:06;;;;;;;13.15;4.35;;;14.20;99.90;;;;;;5014699;28;20494;-70
2023/05/26 07:13:32;;;;;;;22.05;4.30;;;14.00;99.90;;;;;;5014944;28;20045;-70
2023/05/26 07:15:58;;;;;;;19.10;3.10;;;14.30;99.90;;;;;;5014901;28;20116;-70
2023/05/26 07:18:23;;;;;;;22.60;3.58;;;14.60;99.90;;;;;;5014903;28;20022;-69
2023/05/26 07:20:49;;;;;;;27.15;3.50;;;15.00;99.90;;;;;;5014866;28;20367;-70
2023/05/26 07:23:15;;;;;;;19.30;3.00;;;15.60;99.90;;;;;;5014749;28;20038;-70
2023/05/26 07:25:40;;;;;;;18.70;3.20;;;16.20;99.90;;;;;;5014698;28;20028;-70
2023/05/26 07:28:06;;;;;;;23.73;3.58;;;16.20;99.90;;;;;;5014726;28;20105;-71
2023/05/26 07:30:31;;;;;;;29.92;3.55;;;15.80;99.90;;;;;;5014258;28;20046;-71
2023/05/26 07:32:57;;;;;;;9.85;2.40;;;15.40;99.90;;;;;;5014714;28;20041;-69
2023/05/26 07:35:23;;;;;;;16.20;3.20;;;14.90;99.90;;;;;;5029790;28;20487;-70
2023/05/26 07:37:49;;;;;;;14.52;2.53;;;14.80;99.90;;;;;;5014428;28;20065;-69
2023/05/26 07:40:14;;;;;;;11.40;2.60;;;14.60;99.90;;;;;;5014330;28;20033;-69
2023/05/26 07:42:41;;;;;;;15.82;2.25;;;14.30;99.90;;;;;;5014532;28;20391;-69
2023/05/26 07:45:07;;;;;;;11.85;3.05;;;14.20;99.90;;;;;;5014458;28;20042;-70
2023/05/26 07:47:34;;;;;;;10.20;2.75;;;14.20;99.90;;;;;;5014323;28;20026;-70
2023/05/26 07:50:00;;;;;;;18.70;3.75;;;14.40;99.90;;;;;;5014417;28;20042;-70
2023/05/26 07:52:27;;;;;;;20.08;3.58;;;14.60;99.90;;;;;;5014238;28;20040;-70
2023/05/26 07:54:52;;;;;;;22.27;3.60;;;14.80;99.90;;;;;;5014197;28;20397;-71
2023/05/26 07:57:18;;;;;;;17.10;2.80;;;15.10;99.90;;;;;;5014224;28;20105;-69
2023/05/26 07:59:44;;;;;;;19.20;3.15;;;15.40;99.90;;;;;;5014134;28;20148;-69
2023/05/26 08:02:12;;;;;;;10.93;2.17;;;15.80;99.90;;;;;;5014122;28;20028;-69
2023/05/26 08:04:38;;;;;;;12.50;2.63;;;16.00;99.90;;;;;;5014027;28;20033;-70
2023/05/26 08:07:04;;;;;;;16.00;3.05;;;16.10;99.90;;;;;;5014062;28;20124;-70
2023/05/26 08:09:29;;;;;;;16.40;3.45;;;15.90;99.90;;;;;;5013985;28;20030;-69
2023/05/26 08:11:55;;;;;;;13.48;2.70;;;15.70;99.90;;;;;;5013834;28;20088;-70
2023/05/26 08:14:22;;;;;;;15.85;3.08;;;15.50;99.90;;;;;;5013856;28;20030;-69
2023/05/26 08:16:48;;;;;;;14.80;2.88;;;15.30;99.90;;;;;;5013913;28;20030;-69
2023/05/26 08:19:13;;;;;;;15.95;2.33;;;15.10;99.90;;;;;;5028950;28;20042;-69
2023/05/26 08:21:39;;;;;;;16.30;2.40;;;15.40;99.90;;;;;;5013803;28;20038;-70
2023/05/26 08:24:05;;;;;;;12.70;3.30;;;15.50;99.90;;;;;;5013669;28;20419;-71
2023/05/26 08:26:30;;;;;;;14.50;2.90;;;15.50;99.90;;;;;;5013459;28;20026;-70
2023/05/26 08:28:56;;;;;;;11.38;2.83;;;15.50;99.90;;;;;;5013519;28;20037;-69
2023/05/26 08:31:21;;;;;;;14.95;2.35;;;15.60;99.90;;;;;;5013373;28;20516;-70
2023/05/26 08:33:47;;;;;;;8.07;2.72;;;15.60;99.90;;;;;;5013496;28;20034;-70
2023/05/26 08:36:13;;;;;;;13.45;3.00;;;15.50;99.90;;;;;;5013393;28;20030;-70
2023/05/26 08:38:38;;;;;;;15.88;3.03;;;15.50;99.90;;;;;;5013544;28;20394;-70
2023/05/26 08:41:05;;;;;;;20.35;2.45;;;15.80;99.90;;;;;;5013462;28;20033;-69
2023/05/26 08:43:50;;;;;;;9.20;1.77;;;16.00;99.90;;;;;;5014038;28;20022;-70
2023/05/26 08:46:16;;;;;;;15.82;2.50;;;16.40;99.90;;;;;;5013628;28;20029;-71
2023/05/26 08:48:44;;;;;;;17.15;2.70;;;17.20;99.90;;;;;;5013176;28;20037;-70
2023/05/26 08:51:10;;;;;;;13.85;3.17;;;17.60;99.90;;;;;;5011994;28;20084;-69
2023/05/26 08:53:37;;;;;;;14.83;2.03;;;17.40;99.90;;;;;;5013090;28;20120;-69
2023/05/26 08:56:03;;;;;;;19.60;3.10;;;17.40;99.90;;;;;;5012773;28;20061;-70
2023/05/26 08:58:31;;;;;;;11.30;2.75;;;17.40;99.90;;;;;;5013250;28;20026;-71
2023/05/26 09:00:57;;;;;;;14.55;3.47;;;17.50;99.90;;;;;;5013152;28;20025;-71
2023/05/26 09:03:23;;;;;;;13.70;2.55;;;17.70;99.90;;;;;;5028095;28;20030;-70
2023/05/26 09:05:48;;;;;;;10.32;2.20;;;18.10;99.90;;;;;;5012807;28;20034;-70
2023/05/26 09:08:15;;;;;;;11.80;2.60;;;18.00;99.90;;;;;;5013271;28;20522;-70
2023/05/26 09:10:41;;;;;;;12.65;2.30;;;18.00;99.90;;;;;;5012861;28;20036;-71
2023/05/26 09:13:10;;;;;;;16.50;3.10;;;18.40;99.90;;;;;;5013052;28;20398;-70
2023/05/26 09:15:37;;;;;;;10.32;2.25;;;18.40;99.90;;;;;;5012701;28;20490;-70
2023/05/26 09:18:04;;;;;;;;;;;18.20;99.90;;;;;;5013240;28;20033;-70
2023/05/26 09:20:30;;;;;;;8.65;2.42;;;17.90;99.90;;;;;;5012949;28;19910;-70
2023/05/26 09:22:57;;;;;;;22.60;3.35;;;17.60;99.90;;;;;;5012901;28;20072;-70
2023/05/26 09:25:28;;;;;;;18.53;2.43;;;17.30;99.90;;;;;;5011729;28;20030;-70
2023/05/26 09:27:59;;;;;;;10.48;2.70;;;17.10;99.90;;;;;;5012978;28;20030;-69
2023/05/26 09:30:28;;;;;;;11.00;2.63;;;17.20;99.90;;;;;;5012645;28;20161;-69
2023/05/26 09:32:54;;;;;;;11.15;2.45;;;17.30;99.90;;;;;;5012922;28;20032;-70
2023/05/26 09:35:19;;;;;;;13.40;3.00;;;17.20;99.90;;;;;;5012800;28;20109;-70
2023/05/26 09:37:45;;;;;;;14.57;3.30;;;17.00;99.90;;;;;;5012607;28;20117;-70
2023/05/26 09:40:14;;;;;;;12.20;3.17;;;16.70;99.90;;;;;;5012771;28;20379;-71
2023/05/26 09:42:47;;;;;;;9.13;2.78;;;16.80;99.90;;;;;;5028048;28;20029;-70
2023/05/26 09:45:13;;;;;;;15.65;2.95;;;16.80;99.90;;;;;;5012866;28;20030;-70
2023/05/26 09:47:39;;;;;;;13.52;2.67;;;16.90;99.90;;;;;;5012669;28;20030;-70
2023/05/26 09:50:05;;;;;;;13.88;3.22;;;17.30;99.90;;;;;;5012712;28;20057;-69
2023/05/26 09:52:36;;;;;;;18.23;3.13;;;17.40;99.90;;;;;;5012712;28;20457;-69
2023/05/26 09:55:02;;;;;;;13.50;2.65;;;17.40;99.90;;;;;;5012550;28;20033;-71
2023/05/26 09:57:28;;;;;;;18.20;3.67;;;17.30;99.90;;;;;;5027825;28;20062;-71
2023/05/26 09:59:56;;;;;;;14.75;2.58;;;17.20;99.90;;;;;;5012602;28;20036;-69
2023/05/26 10:02:26;;;;;;;14.20;3.35;;;17.40;99.90;;;;;;5012788;28;20514;-69
2023/05/26 10:04:53;;;;;;;9.70;2.75;;;17.50;99.90;;;;;;5012583;28;20501;-69
2023/05/26 10:07:20;;;;;;;12.05;2.40;;;17.50;99.90;;;;;;5012599;28;20029;-69
2023/05/26 10:09:57;;;;;;;6.75;1.80;;;17.70;99.90;;;;;;5012335;28;20041;-70
2023/05/26 10:12:28;;;;;;;7.38;2.10;;;18.00;99.90;;;;;;5012475;28;20144;-70
2023/05/26 10:14:54;;;;;;;9.15;2.42;;;18.00;99.90;;;;;;5012495;28;20033;-69
2023/05/26 10:17:24;;;;;;;16.25;3.40;;;18.00;99.90;;;;;;5014848;28;20130;-69
2023/05/26 10:19:51;;;;;;;17.70;3.22;;;18.40;99.90;;;;;;5015988;28;20030;-70
2023/05/26 10:22:25;;;;;;;9.87;3.03;;;18.50;99.90;;;;;;5030555;28;20034;-69
2023/05/26 10:25:06;;;;;;;17.15;2.20;;;18.60;99.90;;;;;;5015965;28;20030;-70
2023/05/26 10:27:44;;;;;;;19.10;2.50;;;18.80;99.90;;;;;;5015924;28;20100;-71
2023/05/26 10:30:15;;;;;;;18.90;3.35;;;19.10;99.90;;;;;;5015618;28;20033;-70
2023/05/26 10:32:45;;;;;;;17.67;3.42;;;19.00;99.50;;;;;;5015799;28;20036;-71
2023/05/26 10:35:23;;;;;;;8.80;2.65;;;18.90;99.90;;;;;;5016001;28;20022;-69
2023/05/26 10:37:54;;;;;;;13.35;2.58;;;18.70;99.90;;;;;;5015631;28;20022;-70
2023/05/26 10:40:44;;;;;;;9.32;2.60;;;18.60;99.90;;;;;;5015654;28;20581;-69
2023/05/26 10:43:13;;;;;;;14.02;2.97;;;18.60;99.90;;;;;;5015639;28;20064;-69
2023/05/26 10:45:49;;;;;;;10.98;2.70;;;18.50;99.90;;;;;;5015512;28;20034;-70
2023/05/26 10:48:16;;;;;;;7.25;2.05;;;18.50;99.90;;;;;;5015522;28;20030;-70
2023/05/26 10:50:58;;;;;;;8.07;2.08;;;18.60;99.90;;;;;;5030712;28;20033;-72
2023/05/26 10:53:27;;;;;;;10.02;2.05;;;18.60;99.10;;;;;;5015418;28;20034;-70
2023/05/26 10:55:58;;;;;;;13.60;3.20;;;18.40;99.70;;;;;;5015247;28;20033;-69
2023/05/26 10:58:34;;;;;;;12.18;2.83;;;18.30;99.90;;;;;;5015321;28;20030;-70
2023/05/26 11:01:01;;;;;;;11.75;2.55;;;18.30;99.80;;;;;;5015268;28;20026;-70
2023/05/26 11:03:35;;;;;;;9.30;2.25;;;18.40;99.90;;;;;;5013945;28;20112;-69
2023/05/26 11:06:01;;;;;;;13.18;2.78;;;18.40;99.90;;;;;;5015152;28;20113;-69
2023/05/26 11:08:35;;;;;;;9.63;3.05;;;18.20;99.90;;;;;;5015104;28;20030;-70
2023/05/26 11:11:06;;;;;;;5.45;2.13;;;18.00;99.90;;;;;;5014981;28;20371;-71
2023/05/26 11:13:43;;;;;;;13.07;2.75;;;17.90;99.90;;;;;;5015042;28;20026;-70
2023/05/26 11:16:17;;;;;;;13.55;2.67;;;17.70;99.90;;;;;;5014974;28;20072;-70
2023/05/26 11:18:50;;;;;;;9.70;2.97;;;17.60;99.90;;;;;;5014943;28;20033;-70
2023/05/26 11:21:17;;;;;;;12.48;3.25;;;17.60;99.90;;;;;;5014853;28;20026;-70
2023/05/26 11:23:45;;;;;;;13.90;2.47;;;17.60;99.90;;;;;;5014863;28;20392;-68
2023/05/26 11:26:15;;;;;;;11.18;2.40;;;17.70;99.90;;;;;;5015017;28;20034;-70
2023/05/26 11:28:45;;;;;;;11.65;2.53;;;17.90;99.90;;;;;;5014316;28;20083;-70
2023/05/26 11:31:13;;;;;;;16.05;3.42;;;18.10;99.90;;;;;;5014517;28;20038;-70
2023/05/26 11:33:40;;;;;;;18.77;3.13;;;18.20;99.90;;;;;;5014936;28;20072;-70
2023/05/26 11:36:11;;;;;;;12.10;2.65;;;18.30;99.90;;;;;;5013249;28;20049;-69
2023/05/26 11:38:38;;;;;;;17.98;2.60;;;18.40;99.90;;;;;;5014534;28;20018;-69
2023/05/26 11:41:05;;;;;;;11.80;1.70;;;18.50;99.90;;;;;;5014488;28;20033;-69
2023/05/26 11:43:31;;;;;;;12.43;2.75;;;18.50;99.90;;;;;;5014270;28;20033;-69
2023/05/26 11:46:26;;;;;;;11.68;2.97;;;18.50;99.90;;;;;;5014424;28;20101;-71
2023/05/26 11:48:52;;;;;;;12.50;2.00;;;18.70;99.90;;;;;;5013200;28;20123;-70
2023/05/26 11:51:19;;;;;;;9.52;2.50;;;18.80;99.90;;;;;;5014434;28;20081;-70
2023/05/26 11:53:47;;;;;;;12.75;2.90;;;19.00;99.90;;;;;;5014330;28;20036;-70
2023/05/26 11:56:15;;;;;;;16.13;2.72;;;19.20;99.80;;;;;;5014154;28;20030;-70
2023/05/26 11:58:46;;;;;;;9.27;2.63;;;19.20;99.00;;;;;;5014157;28;20022;-70
2023/05/26 12:01:13;;;;;;;9.82;2.70;;;19.00;98.80;;;;;;5014292;28;20394;-69
2023/05/26 12:03:41;;;;;;;10.35;2.70;;;19.00;99.20;;;;;;5013906;28;20478;-70
2023/05/26 12:06:10;;;;;;;10.05;2.00;;;19.20;99.40;;;;;;5014031;28;20030;-68
2023/05/26 12:09:03;;;;;;;17.30;2.50;;;19.40;99.20;;;;;;5013988;28;20026;-71
2023/05/26 12:11:29;;;;;;;7.20;2.70;;;19.40;99.50;;;;;;5012289;28;20040;-69
2023/05/26 12:13:57;;;;;;;7.00;2.25;;;19.30;99.20;;;;;;5013916;28;20101;-69
2023/05/26 12:16:38;;;;;;;9.98;2.33;;;19.40;99.90;;;;;;5013823;28;20088;-69
2023/05/26 12:19:05;;;;;;;14.85;2.83;;;19.70;99.20;;;;;;5013771;28;20037;-70
2023/05/26 12:21:37;;;;;;;9.63;2.33;;;19.70;98.80;;;;;;5013400;28;20089;-71
2023/05/26 12:24:03;;;;;;;6.07;2.05;;;19.30;99.10;;;;;;5028762;28;20552;-70
2023/05/26 12:26:30;;;;;;;21.98;2.63;;;19.00;99.20;;;;;;5014015;28;20030;-70
2023/05/26 12:29:06;;;;;;;12.52;2.20;;;18.90;99.40;;;;;;5013949;28;20475;-70
2023/05/26 12:31:38;;;;;;;17.17;2.63;;;18.90;99.60;;;;;;5013214;28;20029;-70
2023/05/26 12:34:04;;;;;;;8.35;1.98;;;19.10;99.30;;;;;;5013554;28;20511;-69
2023/05/26 12:36:30;;;;;;;9.48;1.83;;;19.30;99.50;;;;;;5011462;28;20041;-70
2023/05/26 12:38:55;;;;;;;9.77;2.03;;;19.40;99.30;;;;;;5012691;28;20030;-69
2023/05/26 12:41:22;;;;;;;7.45;2.00;;;19.50;98.50;;;;;;5013331;28;20022;-69
2023/05/26 12:43:48;;;;;;;7.93;1.87;;;19.60;98.60;;;;;;5013387;28;20118;-70
2023/05/26 12:46:13;;;;;;;10.02;2.25;;;19.80;98.30;;;;;;5013264;28;20356;-69